createdAt,value
2019-05-06T00:01:04.923Z,15.00
2019-05-06T00:03:34.520Z,12.78
2019-05-06T00:06:04.088Z,12.35
2019-05-06T00:08:34.742Z,15.13
2019-05-06T00:11:04.919Z,15.03
2019-05-06T00:13:34.612Z,13.28
2019-05-06T00:16:04.236Z,12.35
2019-05-06T00:18:34.260Z,13.35
2019-05-06T00:21:04.610Z,13.78
2019-05-06T00:23:45.062Z,12.88
2019-05-06T00:26:16.157Z,14.25
2019-05-06T00:28:49.913Z,14.05
2019-05-06T00:31:21.043Z,14.87
2019-05-06T00:33:50.373Z,13.83
2019-05-06T00:36:19.703Z,14.03
2019-05-06T00:38:51.387Z,12.40
2019-05-06T00:41:29.638Z,17.05
2019-05-06T00:43:58.966Z,11.35
2019-05-06T00:46:28.289Z,19.98
2019-05-06T00:48:57.780Z,13.30
2019-05-06T00:51:27.111Z,18.42
2019-05-06T00:53:58.081Z,16.50
2019-05-06T00:56:27.441Z,16.73
2019-05-06T00:58:57.016Z,14.38
2019-05-06T01:01:29.646Z,15.03
2019-05-06T01:03:57.475Z,19.77
2019-05-06T01:06:27.100Z,16.42
2019-05-06T01:08:56.683Z,16.95
2019-05-06T01:11:26.548Z,14.35
2019-05-06T01:14:00.171Z,13.60
2019-05-06T01:16:29.574Z,11.50
2019-05-06T01:18:59.146Z,20.08
2019-05-06T01:21:28.950Z,16.80
2019-05-06T01:23:58.283Z,16.32
2019-05-06T01:26:27.683Z,14.60
2019-05-06T01:28:57.016Z,19.60
2019-05-06T01:31:39.890Z,15.10
2019-05-06T01:33:57.877Z,16.87
2019-05-06T01:36:27.264Z,17.92
2019-05-06T01:38:58.371Z,14.53
2019-05-06T01:41:46.010Z,15.18
2019-05-06T01:44:16.580Z,16.25
2019-05-06T01:46:46.078Z,18.40
2019-05-06T01:49:15.476Z,20.30
2019-05-06T01:51:44.808Z,20.97
2019-05-06T01:54:14.394Z,18.10
2019-05-06T01:56:44.532Z,17.32
2019-05-06T01:59:14.293Z,18.62
2019-05-06T02:01:57.349Z,17.37
2019-05-06T02:04:14.903Z,20.35
2019-05-06T02:06:44.344Z,26.85
2019-05-06T02:09:15.881Z,17.82
2019-05-06T02:11:47.900Z,26.80
2019-05-06T02:14:16.820Z,21.33
2019-05-06T02:16:46.148Z,18.15
2019-05-06T02:19:15.487Z,21.65
2019-05-06T02:21:46.904Z,18.62
2019-05-06T02:24:20.935Z,21.10
2019-05-06T02:26:50.576Z,23.83
2019-05-06T02:29:24.727Z,24.47
2019-05-06T02:32:14.758Z,27.35
2019-05-06T02:34:46.063Z,24.57
2019-05-06T02:37:34.982Z,24.32
2019-05-06T02:40:07.759Z,16.75
2019-05-06T02:42:37.425Z,20.72
2019-05-06T02:45:07.736Z,21.68
2019-05-06T02:47:53.768Z,18.98
2019-05-06T02:50:42.570Z,25.50
2019-05-06T02:53:13.326Z,18.02
2019-05-06T02:55:43.220Z,23.35
2019-05-06T02:58:14.909Z,18.85
2019-05-06T03:00:43.606Z,22.52
2019-05-06T03:03:14.405Z,17.00
2019-05-06T03:05:44.849Z,20.55
2019-05-06T03:08:14.181Z,28.23
2019-05-06T03:10:44.502Z,24.15
2019-05-06T03:13:14.597Z,26.73
2019-05-06T03:15:44.144Z,23.32
2019-05-06T03:18:14.861Z,22.17
2019-05-06T03:20:59.907Z,21.93
2019-05-06T03:23:43.952Z,20.88
2019-05-06T03:26:13.838Z,19.97
2019-05-06T03:28:44.227Z,23.55
2019-05-06T03:31:16.340Z,18.95
2019-05-06T03:33:59.576Z,19.12
2019-05-06T03:36:24.990Z,24.12
2019-05-06T03:38:47.093Z,26.90
2019-05-06T03:41:16.643Z,27.73
2019-05-06T03:43:45.969Z,29.92
2019-05-06T03:46:34.763Z,28.45
2019-05-06T03:49:06.050Z,25.15
2019-05-06T03:51:35.456Z,25.30
2019-05-06T03:54:05.516Z,27.13
2019-05-06T03:56:38.295Z,24.37
2019-05-06T03:59:09.238Z,24.70
2019-05-06T04:01:38.719Z,23.30
2019-05-06T04:04:08.410Z,26.15
2019-05-06T04:06:38.428Z,23.20
2019-05-06T04:09:08.262Z,27.65
2019-05-06T04:11:39.717Z,25.65
2019-05-06T04:14:10.083Z,27.67
2019-05-06T04:16:44.447Z,19.52
2019-05-06T04:19:23.751Z,21.10
2019-05-06T04:21:57.283Z,20.97
2019-05-06T04:24:37.261Z,23.45
2019-05-06T04:27:35.654Z,23.40
2019-05-06T04:30:06.804Z,22.82
2019-05-06T04:32:36.393Z,20.43
2019-05-06T04:35:06.082Z,24.27
2019-05-06T04:37:35.692Z,27.58
2019-05-06T04:40:06.925Z,21.68
2019-05-06T04:42:36.342Z,24.37
2019-05-06T04:45:05.901Z,26.40
2019-05-06T04:47:35.293Z,24.82
2019-05-06T04:50:07.053Z,20.00
2019-05-06T04:52:36.726Z,25.02
2019-05-06T04:55:06.483Z,24.15
2019-05-06T04:57:35.990Z,28.87
2019-05-06T05:00:06.662Z,22.85
2019-05-06T05:02:36.059Z,18.73
2019-05-06T05:05:06.937Z,23.60
2019-05-06T05:07:36.802Z,20.88
2019-05-06T05:10:08.438Z,25.77
2019-05-06T05:12:39.403Z,21.80
2019-05-06T05:15:22.721Z,23.20
2019-05-06T05:18:10.208Z,20.05
2019-05-06T05:20:45.676Z,23.02
2019-05-06T05:23:11.962Z,26.82
2019-05-06T05:25:42.535Z,22.82
2019-05-06T05:28:13.444Z,21.27
2019-05-06T05:30:43.344Z,24.02
2019-05-06T05:33:12.681Z,23.12
2019-05-06T05:35:43.241Z,20.65
2019-05-06T05:38:13.176Z,20.92
2019-05-06T05:40:43.346Z,18.87
2019-05-06T05:43:14.487Z,18.90
2019-05-06T05:45:43.822Z,23.62
2019-05-06T05:48:15.168Z,24.67
2019-05-06T05:50:44.842Z,28.40
2019-05-06T05:53:14.246Z,29.20
2019-05-06T05:55:43.576Z,18.82
2019-05-06T05:58:13.172Z,19.73
2019-05-06T06:00:43.041Z,24.10
2019-05-06T06:03:12.780Z,22.13
2019-05-06T06:05:42.884Z,25.68
2019-05-06T06:08:13.014Z,22.55
2019-05-06T06:10:53.305Z,25.45
2019-05-06T06:13:22.686Z,23.95
2019-05-06T06:15:59.774Z,21.48
2019-05-06T06:18:46.031Z,21.95
2019-05-06T06:21:27.859Z,21.30
2019-05-06T06:24:13.122Z,22.87
2019-05-06T06:26:43.049Z,20.70
2019-05-06T06:29:12.694Z,19.82
2019-05-06T06:31:46.647Z,23.12
2019-05-06T06:34:18.153Z,24.12
2019-05-06T06:36:49.132Z,19.52
2019-05-06T06:39:20.095Z,22.10
2019-05-06T06:41:51.793Z,25.08
2019-05-06T06:44:36.290Z,21.70
2019-05-06T06:47:05.634Z,22.20
2019-05-06T06:49:35.129Z,20.25
2019-05-06T06:52:10.908Z,22.80
2019-05-06T06:54:35.877Z,22.35
2019-05-06T06:57:09.426Z,23.60
2019-05-06T06:59:59.211Z,23.50
2019-05-06T07:02:32.680Z,23.50
2019-05-06T07:05:04.888Z,18.95
2019-05-06T07:07:43.543Z,20.92
2019-05-06T07:10:09.246Z,20.65
2019-05-06T07:12:38.583Z,18.65
2019-05-06T07:15:08.651Z,18.27
2019-05-06T07:17:38.281Z,21.87
2019-05-06T07:20:09.491Z,19.45
2019-05-06T07:22:38.826Z,21.70
2019-05-06T07:25:09.800Z,21.15
2019-05-06T07:27:39.137Z,19.17
2019-05-06T07:30:09.140Z,18.00
2019-05-06T07:32:38.793Z,22.87
2019-05-06T07:35:08.190Z,22.35
2019-05-06T07:37:37.535Z,17.12
2019-05-06T07:40:08.406Z,17.85
2019-05-06T07:42:39.453Z,22.40
2019-05-06T07:45:25.950Z,20.57
2019-05-06T07:48:00.473Z,22.15
2019-05-06T07:50:29.881Z,20.55
2019-05-06T07:53:08.559Z,24.10
2019-05-06T07:55:38.316Z,18.82
2019-05-06T07:58:07.991Z,21.70
2019-05-06T08:00:37.670Z,20.77
2019-05-06T08:03:08.172Z,16.52
2019-05-06T08:05:51.591Z,23.92
2019-05-06T08:08:12.983Z,20.90
2019-05-06T08:10:43.062Z,20.45
2019-05-06T08:13:13.047Z,15.50
2019-05-06T08:15:42.728Z,18.98
2019-05-06T08:18:12.897Z,15.83
2019-05-06T08:20:42.774Z,14.38
2019-05-06T08:23:16.693Z,16.48
2019-05-06T08:25:47.892Z,18.50
2019-05-06T08:28:17.394Z,13.72
2019-05-06T08:30:47.019Z,16.17
2019-05-06T08:33:16.567Z,15.28
2019-05-06T08:35:45.896Z,15.08
2019-05-06T08:38:15.509Z,12.58
2019-05-06T08:40:44.890Z,17.37
2019-05-06T08:43:15.414Z,19.37
2019-05-06T08:45:44.738Z,14.03
2019-05-06T08:48:14.069Z,16.77
2019-05-06T08:50:45.037Z,19.35
2019-05-06T08:53:16.043Z,18.50
2019-05-06T08:55:46.992Z,15.95
2019-05-06T08:58:16.325Z,15.78
2019-05-06T09:00:50.095Z,14.87
2019-05-06T09:05:52.963Z,16.93
2019-05-06T09:08:24.207Z,17.95
2019-05-06T09:10:53.997Z,16.40
2019-05-06T09:13:24.300Z,17.85
2019-05-06T09:15:53.626Z,16.93
2019-05-06T09:18:24.073Z,17.10
2019-05-06T09:20:53.761Z,20.90
2019-05-06T09:23:23.421Z,17.37
2019-05-06T09:25:53.290Z,15.23
2019-05-06T09:28:24.325Z,17.35
2019-05-06T09:31:02.213Z,22.58
2019-05-06T09:33:33.427Z,20.20
2019-05-06T09:36:03.324Z,20.25
2019-05-06T09:38:32.781Z,17.77
2019-05-06T09:41:04.958Z,20.62
2019-05-06T09:43:33.509Z,22.82
2019-05-06T09:46:02.860Z,22.22
2019-05-06T09:48:42.614Z,23.50
2019-05-06T09:51:13.066Z,20.30
2019-05-06T09:54:03.851Z,25.00
2019-05-06T09:56:33.566Z,22.27
2019-05-06T09:59:03.004Z,22.22
2019-05-06T10:01:33.408Z,20.88
2019-05-06T10:04:04.405Z,21.02
2019-05-06T10:06:33.746Z,22.35
2019-05-06T10:09:05.116Z,26.97
2019-05-06T10:11:36.165Z,24.60
2019-05-06T10:14:05.943Z,30.17
2019-05-06T10:16:35.547Z,29.67
2019-05-06T10:19:05.720Z,30.23
2019-05-06T10:21:35.791Z,26.30
2019-05-06T10:24:05.498Z,32.13
2019-05-06T10:26:36.646Z,25.55
2019-05-06T10:29:08.172Z,25.68
2019-05-06T10:31:43.188Z,26.62
2019-05-06T10:34:13.993Z,25.23
2019-05-06T10:36:48.381Z,23.80
2019-05-06T10:39:22.796Z,26.33
2019-05-06T10:41:57.068Z,27.32
2019-05-06T10:44:38.074Z,23.12
2019-05-06T10:47:07.407Z,29.52
2019-05-06T10:49:36.735Z,27.48
2019-05-06T10:52:07.708Z,24.27
2019-05-06T10:54:38.015Z,25.20
2019-05-06T10:57:08.986Z,26.70
2019-05-06T10:59:39.466Z,20.20
2019-05-06T11:02:23.229Z,19.37
2019-05-06T11:04:53.033Z,16.65
2019-05-06T11:07:31.819Z,17.92
2019-05-06T11:09:53.509Z,16.42
2019-05-06T11:12:22.911Z,16.50
2019-05-06T11:14:53.179Z,22.80
2019-05-06T11:17:23.517Z,16.60
2019-05-06T11:19:53.379Z,16.23
2019-05-06T11:22:24.713Z,16.95
2019-05-06T11:24:54.811Z,17.17
2019-05-06T11:27:31.342Z,20.40
2019-05-06T11:29:57.105Z,18.65
2019-05-06T11:32:33.784Z,15.35
2019-05-06T11:35:05.036Z,20.45
2019-05-06T11:37:45.839Z,14.90
2019-05-06T11:40:08.298Z,16.00
2019-05-06T11:42:37.709Z,13.85
2019-05-06T11:45:08.495Z,12.88
2019-05-06T11:47:37.898Z,18.15
2019-05-06T11:50:09.337Z,15.08
2019-05-06T11:52:39.052Z,10.93
2019-05-06T11:55:12.462Z,13.40
2019-05-06T11:57:44.667Z,14.07
2019-05-06T12:00:16.665Z,14.33
2019-05-06T12:02:48.654Z,10.65
2019-05-06T12:05:18.197Z,14.63
2019-05-06T12:08:00.883Z,12.65
2019-05-06T12:10:18.742Z,11.20
2019-05-06T12:12:48.086Z,15.32
2019-05-06T12:15:17.686Z,12.60
2019-05-06T12:17:47.027Z,13.25
2019-05-06T12:20:16.822Z,15.85
2019-05-06T12:22:46.158Z,15.30
2019-05-06T12:25:16.163Z,16.90
2019-05-06T12:27:45.668Z,15.53
2019-05-06T12:30:23.299Z,17.92
2019-05-06T12:32:55.295Z,15.35
2019-05-06T12:35:24.616Z,15.13
2019-05-06T12:37:55.594Z,16.77
2019-05-06T12:40:24.927Z,17.95
2019-05-06T12:42:55.895Z,20.82
2019-05-06T12:45:26.887Z,18.20
2019-05-06T12:47:57.851Z,21.68
2019-05-06T12:50:27.185Z,19.80
2019-05-06T12:52:57.910Z,20.68
2019-05-06T12:55:27.360Z,14.63
2019-05-06T12:57:56.967Z,16.52
2019-05-06T13:00:28.281Z,17.23
2019-05-06T13:02:57.614Z,14.80
2019-05-06T13:05:26.952Z,14.38
2019-05-06T13:07:56.280Z,15.25
2019-05-06T13:10:25.618Z,18.62
2019-05-06T13:12:56.697Z,17.62
2019-05-06T13:15:26.042Z,21.00
2019-05-06T13:17:55.368Z,14.20
2019-05-06T13:20:24.706Z,14.33
2019-05-06T13:22:56.644Z,16.70
2019-05-06T13:25:26.206Z,18.12
2019-05-06T13:27:55.763Z,14.98
2019-05-06T13:30:25.161Z,17.25
2019-05-06T13:32:56.195Z,20.40
2019-05-06T13:35:25.752Z,15.20
2019-05-06T13:37:55.076Z,15.80
2019-05-06T13:40:27.153Z,17.55
2019-05-06T13:42:59.839Z,15.70
2019-05-06T13:47:59.557Z,18.87
2019-05-06T13:50:30.521Z,15.38
2019-05-06T13:53:09.324Z,17.42
2019-05-06T13:55:32.955Z,19.50
2019-05-06T13:58:03.266Z,22.15
2019-05-06T14:00:33.672Z,18.12
2019-05-06T14:03:02.996Z,15.50
2019-05-06T14:05:32.981Z,17.80
2019-05-06T14:08:04.715Z,18.30
2019-05-06T14:10:33.591Z,17.70
2019-05-06T14:13:02.928Z,17.17
2019-05-06T14:15:32.670Z,16.20
2019-05-06T14:18:02.716Z,21.52
2019-05-06T14:20:33.568Z,17.25
2019-05-06T14:23:03.106Z,17.17
2019-05-06T14:25:34.091Z,16.02
2019-05-06T14:28:05.487Z,18.60
2019-05-06T14:30:42.904Z,17.85
2019-05-06T14:33:15.505Z,17.15
2019-05-06T14:38:14.960Z,20.75
2019-05-06T14:41:07.196Z,18.90
2019-05-06T14:43:32.813Z,21.73
2019-05-06T14:46:02.233Z,23.85
2019-05-06T14:48:33.110Z,19.07
2019-05-06T14:51:02.634Z,19.37
2019-05-06T14:53:33.030Z,22.22
2019-05-06T14:56:04.596Z,21.82
2019-05-06T14:58:33.929Z,20.68
2019-05-06T15:01:03.713Z,18.40
2019-05-06T15:03:33.258Z,17.70
2019-05-06T15:06:02.770Z,14.80
2019-05-06T15:08:32.402Z,17.37
2019-05-06T15:11:03.181Z,15.83
2019-05-06T15:13:32.640Z,13.72
2019-05-06T15:16:03.464Z,14.65
2019-05-06T15:18:33.147Z,14.85
2019-05-06T15:21:29.062Z,11.85
2019-05-06T15:23:33.529Z,10.98
2019-05-06T15:26:03.121Z,11.00
2019-05-06T15:28:33.768Z,14.30
2019-05-06T15:31:12.467Z,12.33
2019-05-06T15:33:49.775Z,12.82
2019-05-06T15:36:35.881Z,14.05
2019-05-06T15:39:06.555Z,9.50
2019-05-06T15:41:36.712Z,11.88
2019-05-06T15:44:06.045Z,14.15
2019-05-06T15:46:35.383Z,11.08
2019-05-06T15:49:04.776Z,11.60
2019-05-06T15:51:36.775Z,9.38
2019-05-06T15:54:06.777Z,11.08
2019-05-06T15:56:36.106Z,14.05
2019-05-06T15:59:05.796Z,11.40
2019-05-06T16:01:35.127Z,10.98
2019-05-06T16:04:04.718Z,9.35
2019-05-06T16:06:34.030Z,8.80
2019-05-06T16:09:05.487Z,9.95
2019-05-06T16:11:36.423Z,11.03
2019-05-06T16:14:06.718Z,10.53
2019-05-06T16:16:36.036Z,8.45
2019-05-06T16:19:05.384Z,9.35
2019-05-06T16:21:34.702Z,8.58
2019-05-06T16:24:05.987Z,13.35
2019-05-06T16:26:35.287Z,8.83
2019-05-06T16:29:04.681Z,11.28
2019-05-06T16:31:34.000Z,10.72
2019-05-06T16:34:03.322Z,9.10
2019-05-06T16:36:32.883Z,11.40
2019-05-06T16:39:03.589Z,9.08
2019-05-06T16:41:34.106Z,17.37
2019-05-06T16:44:03.510Z,16.90
2019-05-06T16:46:34.174Z,19.07
2019-05-06T16:49:03.643Z,10.40
2019-05-06T16:51:32.967Z,10.30
2019-05-06T16:54:02.293Z,7.70
2019-05-06T16:56:36.064Z,12.20
2019-05-06T16:59:06.801Z,13.72
2019-05-06T17:01:37.831Z,13.20
2019-05-06T17:04:17.251Z,12.25
2019-05-06T17:06:48.147Z,11.55
2019-05-06T17:09:23.723Z,12.58
2019-05-06T17:11:48.560Z,10.45
2019-05-06T17:14:17.888Z,13.90
2019-05-06T17:16:47.218Z,13.20
2019-05-06T17:19:17.518Z,12.28
2019-05-06T17:21:48.463Z,12.73
2019-05-06T17:24:19.144Z,10.68
2019-05-06T17:26:48.470Z,12.88
2019-05-06T17:29:22.512Z,12.93
2019-05-06T17:31:54.216Z,14.90
2019-05-06T17:34:25.184Z,15.28
2019-05-06T17:36:56.155Z,12.45
2019-05-06T17:39:25.477Z,14.65
2019-05-06T17:41:55.039Z,13.32
2019-05-06T17:44:24.428Z,15.88
2019-05-06T17:46:58.287Z,11.85
2019-05-06T17:49:30.568Z,12.30
2019-05-06T17:52:22.166Z,14.75
2019-05-06T17:54:52.738Z,13.58
2019-05-06T17:57:22.453Z,14.43
2019-05-06T17:59:52.820Z,15.15
2019-05-06T18:02:24.873Z,17.10
2019-05-06T18:04:54.200Z,17.32
2019-05-06T18:07:23.537Z,17.75
2019-05-06T18:09:54.133Z,16.52
2019-05-06T18:12:23.428Z,18.17
2019-05-06T18:14:53.361Z,17.52
2019-05-06T18:17:23.148Z,18.02
2019-05-06T18:19:52.552Z,15.95
2019-05-06T18:22:23.017Z,17.90
2019-05-06T18:24:52.637Z,15.95
2019-05-06T18:27:22.670Z,19.55
2019-05-06T18:29:53.288Z,16.55
2019-05-06T18:32:23.491Z,16.80
2019-05-06T18:34:53.013Z,17.50
2019-05-06T18:37:23.370Z,18.12
2019-05-06T18:39:53.121Z,18.25
2019-05-06T18:42:23.895Z,17.57
2019-05-06T18:44:53.477Z,18.07
2019-05-06T18:47:22.862Z,22.10
2019-05-06T18:49:52.504Z,20.00
2019-05-06T18:52:22.919Z,19.48
2019-05-06T18:54:52.603Z,18.95
2019-05-06T18:57:22.628Z,17.15
2019-05-06T18:59:53.337Z,21.55
2019-05-06T19:02:23.055Z,20.60
2019-05-06T19:04:56.725Z,22.20
2019-05-06T19:09:59.147Z,17.65
2019-05-06T19:12:36.326Z,17.40
2019-05-06T19:14:59.790Z,19.20
2019-05-06T19:17:29.124Z,17.23
2019-05-06T19:19:58.454Z,20.88
2019-05-06T19:22:27.789Z,21.87
2019-05-06T19:24:57.127Z,19.15
2019-05-06T19:27:26.752Z,21.15
2019-05-06T19:29:56.205Z,19.92
2019-05-06T19:32:25.822Z,17.12
2019-05-06T19:34:55.177Z,21.40
2019-05-06T19:37:24.549Z,25.08
2019-05-06T19:39:53.951Z,21.12
2019-05-06T19:42:23.284Z,20.23
2019-05-06T19:44:53.102Z,19.82
2019-05-06T19:47:22.493Z,18.75
2019-05-06T19:49:53.164Z,18.30
2019-05-06T19:52:24.989Z,22.90
2019-05-06T19:54:53.741Z,21.55
2019-05-06T19:57:23.072Z,18.55
2019-05-06T19:59:52.398Z,20.12
2019-05-06T20:02:25.666Z,19.60
2019-05-06T20:04:56.985Z,18.10
2019-05-06T20:07:44.477Z,24.02
2019-05-06T20:10:15.587Z,16.37
2019-05-06T20:13:01.642Z,19.02
2019-05-06T20:15:36.149Z,16.75
2019-05-06T20:18:06.226Z,19.45
2019-05-06T20:20:36.757Z,20.70
2019-05-06T20:23:06.229Z,19.40
2019-05-06T20:25:37.145Z,17.42
2019-05-06T20:28:07.899Z,15.30
2019-05-06T20:30:37.230Z,15.00
2019-05-06T20:33:06.782Z,14.43
2019-05-06T20:35:36.338Z,18.25
2019-05-06T20:38:05.670Z,16.05
2019-05-06T20:40:34.989Z,14.07
2019-05-06T20:43:16.677Z,15.13
2019-05-06T20:45:35.693Z,13.15
2019-05-06T20:48:05.123Z,13.00
2019-05-06T20:50:34.432Z,11.25
2019-05-06T20:53:03.759Z,11.08
2019-05-06T20:55:35.565Z,17.55
2019-05-06T20:58:04.189Z,14.35
2019-05-06T21:00:33.764Z,15.13
2019-05-06T21:03:03.345Z,11.30
2019-05-06T21:05:32.666Z,12.35
2019-05-06T21:08:02.377Z,11.83
2019-05-06T21:10:32.889Z,11.78
2019-05-06T21:13:02.591Z,12.63
2019-05-06T21:15:32.532Z,13.70
2019-05-06T21:18:04.226Z,13.32
2019-05-06T21:20:33.279Z,12.45
2019-05-06T21:23:02.625Z,11.75
2019-05-06T21:25:32.244Z,11.50
2019-05-06T21:28:02.803Z,10.80
2019-05-06T21:30:32.751Z,13.55
2019-05-06T21:33:02.078Z,11.05
2019-05-06T21:35:33.137Z,9.80
2019-05-06T21:38:02.796Z,11.08
2019-05-06T21:40:32.526Z,9.80
2019-05-06T21:43:03.034Z,14.53
2019-05-06T21:45:33.176Z,14.90
2019-05-06T21:48:03.178Z,10.85
2019-05-06T21:50:33.141Z,11.22
2019-05-06T21:53:03.028Z,9.20
2019-05-06T21:55:32.620Z,11.15
2019-05-06T21:58:02.413Z,12.70
2019-05-06T22:00:33.416Z,13.10
2019-05-06T22:03:04.504Z,15.03
2019-05-06T22:05:35.202Z,12.18
2019-05-06T22:08:04.777Z,9.95
2019-05-06T22:10:34.235Z,12.07
2019-05-06T22:13:03.618Z,12.10
2019-05-06T22:15:32.957Z,12.15
2019-05-06T22:18:02.655Z,10.20
2019-05-06T22:20:33.613Z,10.80
2019-05-06T22:23:03.129Z,14.13
2019-05-06T22:25:32.731Z,14.95
2019-05-06T22:28:02.467Z,12.25
2019-05-06T22:30:32.846Z,13.18
2019-05-06T22:33:03.635Z,13.30
2019-05-06T22:35:33.582Z,11.30
2019-05-06T22:38:03.050Z,12.33
2019-05-06T22:40:32.838Z,10.43
2019-05-06T22:43:03.172Z,11.35
2019-05-06T22:45:33.046Z,12.53
2019-05-06T22:48:04.553Z,16.02
2019-05-06T22:50:33.618Z,17.37
2019-05-06T22:53:02.939Z,13.25
2019-05-06T22:55:32.938Z,13.62
2019-05-06T22:58:02.600Z,14.23
2019-05-06T23:00:33.603Z,16.50
2019-05-06T23:03:04.898Z,13.30
2019-05-06T23:05:34.222Z,12.68
2019-05-06T23:08:03.767Z,14.83
2019-05-06T23:10:34.256Z,13.10
2019-05-06T23:13:04.552Z,12.88
2019-05-06T23:15:34.263Z,15.70
2019-05-06T23:18:03.655Z,12.33
2019-05-06T23:20:32.976Z,13.98
2019-05-06T23:23:04.759Z,12.13
2019-05-06T23:25:33.706Z,15.70
2019-05-06T23:28:03.039Z,19.70
2019-05-06T23:30:33.396Z,14.03
2019-05-06T23:33:03.066Z,15.10
2019-05-06T23:35:32.390Z,14.75
2019-05-06T23:38:38.229Z,16.55
2019-05-06T23:41:43.714Z,12.75
2019-05-06T23:44:49.114Z,13.30
2019-05-06T23:47:54.886Z,12.43
2019-05-06T23:51:00.955Z,18.62
2019-05-06T23:54:07.012Z,13.20
2019-05-06T23:56:43.551Z,16.12
2019-05-06T23:59:17.288Z,13.65
